createdAt,value
2018-03-24T00:00:25.445Z,-3.4
2018-03-24T00:01:15.200Z,-3.4
2018-03-24T00:02:05.652Z,-3.4
2018-03-24T00:02:55.901Z,-3.4
2018-03-24T00:03:45.694Z,-3.4
2018-03-24T00:04:35.725Z,-3.4
2018-03-24T00:05:26.055Z,-3.4
2018-03-24T00:06:16.113Z,-3.4
2018-03-24T00:07:05.874Z,-3.4
2018-03-24T00:07:56.222Z,-3.4
2018-03-24T00:08:46.294Z,-3.4
2018-03-24T00:09:35.769Z,-3.4
2018-03-24T00:10:26.112Z,-3.4
2018-03-24T00:11:16.176Z,-3.4
2018-03-24T00:12:06.228Z,-3.4
2018-03-24T00:12:56.277Z,-3.4
2018-03-24T00:13:46.627Z,-3.4
2018-03-24T00:14:36.674Z,-3.4
2018-03-24T00:15:26.731Z,-3.4
2018-03-24T00:16:16.791Z,-3.4
2018-03-24T00:17:06.862Z,-3.4
2018-03-24T00:17:56.423Z,-3.4
2018-03-24T00:18:46.952Z,-3.4
2018-03-24T00:19:36.739Z,-3.4
2018-03-24T00:20:26.500Z,-3.4
2018-03-24T00:21:16.561Z,-3.4
2018-03-24T00:22:06.793Z,-3.4
2018-03-24T00:22:57.003Z,-3.4
2018-03-24T00:23:47.025Z,-3.4
2018-03-24T00:24:37.360Z,-3.4
2018-03-24T00:25:27.417Z,-3.5
2018-03-24T00:26:17.082Z,-3.4
2018-03-24T00:27:07.550Z,-3.4
2018-03-24T00:27:57.101Z,-3.5
2018-03-24T00:28:47.355Z,-3.4
2018-03-24T00:29:37.510Z,-3.4
2018-03-24T00:30:27.757Z,-3.5
2018-03-24T00:31:17.248Z,-3.5
2018-03-24T00:32:07.892Z,-3.5
2018-03-24T00:32:57.353Z,-3.5
2018-03-24T00:33:47.706Z,-3.5
2018-03-24T00:34:37.738Z,-3.5
2018-03-24T00:35:28.086Z,-3.5
2018-03-24T00:36:17.870Z,-3.5
2018-03-24T00:37:07.935Z,-3.5
2018-03-24T00:37:57.985Z,-3.5
2018-03-24T00:38:47.761Z,-3.5
2018-03-24T00:39:38.097Z,-3.5
2018-03-24T00:40:28.162Z,-3.5
2018-03-24T00:41:17.928Z,-3.5
2018-03-24T00:42:08.257Z,-3.5
2018-03-24T00:42:58.665Z,-3.5
2018-03-24T00:43:48.657Z,-3.5
2018-03-24T00:44:38.244Z,-3.5
2018-03-24T00:45:28.497Z,-3.5
2018-03-24T00:46:18.572Z,-3.5
2018-03-24T00:47:08.909Z,-3.5
2018-03-24T00:47:58.677Z,-3.6
2018-03-24T00:48:48.429Z,-3.6
2018-03-24T00:49:38.194Z,-3.5
2018-03-24T00:50:29.143Z,-3.5
2018-03-24T00:51:19.181Z,-3.6
2018-03-24T00:52:08.474Z,-3.6
2018-03-24T00:52:59.017Z,-3.6
2018-03-24T00:53:49.341Z,-3.6
2018-03-24T00:54:39.116Z,-3.6
2018-03-24T00:55:28.987Z,-3.6
2018-03-24T00:56:19.048Z,-3.6
2018-03-24T00:57:09.584Z,-3.6
2018-03-24T00:57:59.341Z,-3.6
2018-03-24T00:58:49.417Z,-3.6
2018-03-24T00:59:39.475Z,-3.6
2018-03-24T01:00:29.528Z,-3.6
2018-03-24T01:01:19.289Z,-3.6
2018-03-24T01:02:09.318Z,-3.6
2018-03-24T01:02:59.978Z,-3.6
2018-03-24T01:03:49.735Z,-3.6
2018-03-24T01:04:39.606Z,-3.6
2018-03-24T01:05:29.365Z,-3.6
2018-03-24T01:06:19.925Z,-3.6
2018-03-24T01:07:09.980Z,-3.6
2018-03-24T01:07:59.623Z,-3.6
2018-03-24T01:08:50.085Z,-3.6
2018-03-24T01:09:40.153Z,-3.6
2018-03-24T01:10:30.245Z,-3.6
2018-03-24T01:11:19.989Z,-3.6
2018-03-24T01:12:10.213Z,-3.6
2018-03-24T01:13:00.190Z,-3.6
2018-03-24T01:13:50.142Z,-3.6
2018-03-24T01:14:40.005Z,-3.6
2018-03-24T01:15:30.839Z,-3.6
2018-03-24T01:16:20.602Z,-3.6
2018-03-24T01:17:10.253Z,-3.6
2018-03-24T01:18:00.444Z,-3.6
2018-03-24T01:18:50.482Z,-3.6
2018-03-24T01:19:40.827Z,-3.6
2018-03-24T01:20:31.175Z,-3.6
2018-03-24T01:21:21.211Z,-3.6
2018-03-24T01:22:11.297Z,-3.6
2018-03-24T01:23:01.334Z,-3.6
2018-03-24T01:23:51.398Z,-3.6
2018-03-24T01:24:41.456Z,-3.6
2018-03-24T01:25:31.509Z,-3.6
2018-03-24T01:26:21.290Z,-3.6
2018-03-24T01:27:11.339Z,-3.6
2018-03-24T01:28:01.687Z,-3.6
2018-03-24T01:28:51.747Z,-3.6
2018-03-24T01:29:41.516Z,-3.6
2018-03-24T01:30:31.852Z,-3.6
2018-03-24T01:31:21.913Z,-3.6
2018-03-24T01:32:12.019Z,-3.6
2018-03-24T01:33:01.737Z,-3.6
2018-03-24T01:33:52.075Z,-3.6
2018-03-24T01:34:42.167Z,-3.7
2018-03-24T01:35:32.191Z,-3.6
2018-03-24T01:36:21.972Z,-3.6
2018-03-24T01:37:12.030Z,-3.6
2018-03-24T01:38:02.357Z,-3.7
2018-03-24T01:38:52.136Z,-3.6
2018-03-24T01:39:42.488Z,-3.6
2018-03-24T01:40:32.267Z,-3.6
2018-03-24T01:41:22.398Z,-3.7
2018-03-24T01:42:12.679Z,-3.7
2018-03-24T01:43:02.711Z,-3.7
2018-03-24T01:43:52.763Z,-3.7
2018-03-24T01:44:42.551Z,-3.6
2018-03-24T01:45:32.603Z,-3.7
2018-03-24T01:46:22.676Z,-3.7
2018-03-24T01:47:12.718Z,-3.7
2018-03-24T01:48:02.801Z,-3.7
2018-03-24T01:48:53.112Z,-3.7
2018-03-24T01:49:42.686Z,-3.7
2018-03-24T01:50:32.660Z,-3.7
2018-03-24T01:51:23.286Z,-3.7
2018-03-24T01:52:12.558Z,-3.7
2018-03-24T01:53:02.821Z,-3.7
2018-03-24T01:53:53.474Z,-3.7
2018-03-24T01:54:43.243Z,-3.7
2018-03-24T01:55:33.573Z,-3.7
2018-03-24T01:56:23.433Z,-3.7
2018-03-24T01:57:13.398Z,-3.7
2018-03-24T01:58:03.461Z,-3.7
2018-03-24T01:58:53.312Z,-3.7
2018-03-24T01:59:43.570Z,-3.7
2018-03-24T02:00:33.346Z,-3.7
2018-03-24T02:01:23.783Z,-3.7
2018-03-24T02:02:14.020Z,-3.7
2018-03-24T02:03:04.081Z,-3.7
2018-03-24T02:03:53.659Z,-3.7
2018-03-24T02:04:44.004Z,-3.7
2018-03-24T02:05:34.053Z,-3.7
2018-03-24T02:06:23.843Z,-3.7
2018-03-24T02:07:13.793Z,-3.7
2018-03-24T02:08:03.932Z,-3.7
2018-03-24T02:08:54.492Z,-3.7
2018-03-24T02:09:44.255Z,-3.7
2018-03-24T02:10:34.306Z,-3.7
2018-03-24T02:11:24.081Z,-3.7
2018-03-24T02:12:14.420Z,-3.7
2018-03-24T02:13:04.194Z,-3.7
2018-03-24T02:13:54.541Z,-3.7
2018-03-24T02:14:44.105Z,-3.7
2018-03-24T02:15:34.941Z,-3.7
2018-03-24T02:16:24.702Z,-3.7
2018-03-24T02:17:14.484Z,-3.7
2018-03-24T02:18:04.817Z,-3.7
2018-03-24T02:18:55.154Z,-3.7
2018-03-24T02:19:45.020Z,-3.7
2018-03-24T02:20:35.004Z,-3.7
2018-03-24T02:21:24.761Z,-3.7
2018-03-24T02:22:14.823Z,-3.7
2018-03-24T02:23:05.159Z,-3.7
2018-03-24T02:23:55.211Z,-3.7
2018-03-24T02:24:44.976Z,-3.7
2018-03-24T02:25:35.033Z,-3.7
2018-03-24T02:26:25.685Z,-3.7
2018-03-24T02:27:15.715Z,-3.7
2018-03-24T02:28:05.490Z,-3.7
2018-03-24T02:28:55.839Z,-3.7
2018-03-24T02:29:45.606Z,-3.7
2018-03-24T02:30:35.687Z,-3.7
2018-03-24T02:31:26.034Z,-3.7
2018-03-24T02:32:15.488Z,-3.7
2018-03-24T02:33:05.559Z,-3.7
2018-03-24T02:33:55.903Z,-3.7
2018-03-24T02:34:45.952Z,-3.7
2018-03-24T02:35:36.110Z,-3.7
2018-03-24T02:36:26.178Z,-3.7
2018-03-24T02:37:16.420Z,-3.7
2018-03-24T02:38:06.185Z,-3.7
2018-03-24T02:38:56.399Z,-3.7
2018-03-24T02:39:45.719Z,-3.7
2018-03-24T02:40:36.471Z,-3.7
2018-03-24T02:41:26.215Z,-3.7
2018-03-24T02:42:16.464Z,-3.7
2018-03-24T02:43:06.536Z,-3.7
2018-03-24T02:43:56.886Z,-3.7
2018-03-24T02:44:46.355Z,-3.7
2018-03-24T02:45:36.707Z,-3.7
2018-03-24T02:46:26.460Z,-3.7
2018-03-24T02:47:16.822Z,-3.7
2018-03-24T02:48:57.225Z,-3.7
2018-03-24T02:49:46.992Z,-3.7
2018-03-24T02:50:37.029Z,-3.7
2018-03-24T02:51:27.107Z,-3.7
2018-03-24T02:52:17.453Z,-3.7
2018-03-24T02:53:07.520Z,-3.7
2018-03-24T02:54:47.316Z,-3.7
2018-03-24T02:55:37.102Z,-3.7
2018-03-24T02:56:27.740Z,-3.7
2018-03-24T02:58:07.560Z,-3.7
2018-03-24T03:00:38.026Z,-3.7
2018-03-24T03:19:48.545Z,-3.8
2018-03-24T03:23:59.332Z,-3.8
2018-03-24T03:25:39.748Z,-3.8
2018-03-24T03:26:29.530Z,-3.8
2018-03-24T03:27:19.555Z,-3.8
2018-03-24T03:28:09.326Z,-3.8
2018-03-24T03:28:59.373Z,-3.8
2018-03-24T03:29:49.725Z,-3.8
2018-03-24T03:31:29.860Z,-3.8
2018-03-24T03:32:19.597Z,-3.8
2018-03-24T03:33:09.952Z,-3.8
2018-03-24T03:33:59.804Z,-3.8
2018-03-24T03:34:50.062Z,-3.8
2018-03-24T03:35:39.909Z,-3.8
2018-03-24T03:36:29.885Z,-3.8
2018-03-24T03:37:19.957Z,-3.8
2018-03-24T03:38:10.582Z,-3.8
2018-03-24T03:39:00.147Z,-3.8
2018-03-24T03:39:50.692Z,-3.8
2018-03-24T03:40:40.462Z,-3.8
2018-03-24T03:41:30.795Z,-3.8
2018-03-24T03:42:20.381Z,-3.8
2018-03-24T03:43:10.440Z,-3.8
2018-03-24T03:44:00.292Z,-3.8
2018-03-24T03:44:51.047Z,-3.8
2018-03-24T03:45:40.797Z,-3.8
2018-03-24T03:46:30.665Z,-3.8
2018-03-24T03:47:20.927Z,-3.8
2018-03-24T03:48:10.694Z,-3.8
2018-03-24T03:49:01.047Z,-3.8
2018-03-24T03:49:50.892Z,-3.8
2018-03-24T03:50:41.424Z,-3.8
2018-03-24T03:51:31.513Z,-3.8
2018-03-24T03:52:20.769Z,-3.8
2018-03-24T03:53:11.405Z,-3.8
2018-03-24T03:54:01.363Z,-3.9
2018-03-24T03:54:51.225Z,-3.8
2018-03-24T03:55:41.197Z,-3.8
2018-03-24T03:56:31.556Z,-3.8
2018-03-24T03:57:21.595Z,-3.9
2018-03-24T03:58:11.666Z,-3.8
2018-03-24T03:59:01.696Z,-3.8
2018-03-24T03:59:51.784Z,-3.9
2018-03-24T04:00:42.113Z,-3.8
2018-03-24T04:01:31.882Z,-3.8
2018-03-24T04:02:21.686Z,-3.9
2018-03-24T04:03:12.083Z,-3.8
2018-03-24T04:04:02.336Z,-3.8
2018-03-24T04:04:52.121Z,-3.8
2018-03-24T04:05:41.871Z,-3.8
2018-03-24T04:06:31.815Z,-3.8
2018-03-24T04:07:22.081Z,-3.8
2018-03-24T04:08:12.333Z,-3.8
2018-03-24T04:09:02.699Z,-3.9
2018-03-24T04:09:52.452Z,-3.8
2018-03-24T04:10:42.829Z,-3.9
2018-03-24T04:11:32.865Z,-3.9
2018-03-24T04:12:22.335Z,-3.9
2018-03-24T04:13:12.679Z,-3.9
2018-03-24T04:14:02.554Z,-3.8
2018-03-24T04:14:52.793Z,-3.9
2018-03-24T04:15:42.853Z,-3.9
2018-03-24T04:16:32.621Z,-3.9
2018-03-24T04:17:23.261Z,-3.8
2018-03-24T04:18:12.742Z,-3.9
2018-03-24T04:19:03.379Z,-3.8
2018-03-24T04:19:52.843Z,-3.9
2018-03-24T04:20:42.992Z,-3.8
2018-03-24T04:21:33.054Z,-3.9
2018-03-24T04:22:23.020Z,-3.9
2018-03-24T04:23:13.359Z,-3.9
2018-03-24T04:24:03.424Z,-3.9
2018-03-24T04:24:53.589Z,-3.9
2018-03-24T04:25:43.816Z,-3.9
2018-03-24T04:26:33.971Z,-3.9
2018-03-24T04:27:23.653Z,-3.8
2018-03-24T04:28:13.704Z,-3.9
2018-03-24T04:29:03.771Z,-3.9
2018-03-24T04:29:54.122Z,-3.9
2018-03-24T04:30:43.964Z,-3.9
2018-03-24T04:31:33.942Z,-3.9
2018-03-24T04:32:24.292Z,-3.9
2018-03-24T04:33:14.141Z,-3.9
2018-03-24T04:34:04.207Z,-3.9
2018-03-24T04:34:54.156Z,-3.9
2018-03-24T04:35:44.212Z,-3.9
2018-03-24T04:36:34.072Z,-3.9
2018-03-24T04:37:24.615Z,-3.9
2018-03-24T04:38:14.678Z,-3.8
2018-03-24T04:39:04.174Z,-3.9
2018-03-24T04:39:54.788Z,-3.9
2018-03-24T04:40:44.838Z,-3.8
2018-03-24T04:41:34.908Z,-3.8
2018-03-24T04:42:24.669Z,-3.8
2018-03-24T04:43:15.029Z,-3.8
2018-03-24T04:44:05.077Z,-3.8
2018-03-24T04:44:55.126Z,-3.8
2018-03-24T04:45:44.897Z,-3.9
2018-03-24T04:46:35.232Z,-3.9
2018-03-24T04:47:25.294Z,-3.8
2018-03-24T04:48:15.367Z,-3.8
2018-03-24T04:49:05.398Z,-3.9
2018-03-24T04:49:55.455Z,-3.8
2018-03-24T04:50:45.532Z,-3.8
2018-03-24T04:51:35.626Z,-3.8
2018-03-24T04:52:25.357Z,-3.9
2018-03-24T04:53:15.687Z,-3.8
2018-03-24T04:54:05.747Z,-3.8
2018-03-24T04:54:55.792Z,-3.8
2018-03-24T04:55:45.852Z,-3.8
2018-03-24T04:56:35.625Z,-3.8
2018-03-24T04:57:25.963Z,-3.8
2018-03-24T04:58:15.772Z,-3.8
2018-03-24T04:59:05.806Z,-3.8
2018-03-24T04:59:56.157Z,-3.8
2018-03-24T05:00:45.985Z,-3.8
2018-03-24T05:01:35.970Z,-3.8
2018-03-24T05:02:26.048Z,-3.8
2018-03-24T05:03:16.375Z,-3.8
2018-03-24T05:04:05.880Z,-3.8
2018-03-24T05:04:56.197Z,-3.8
2018-03-24T05:05:46.564Z,-3.8
2018-03-24T05:07:26.698Z,-3.8
2018-03-24T05:08:16.433Z,-3.8
2018-03-24T05:09:06.771Z,-3.8
2018-03-24T05:09:56.859Z,-3.8
2018-03-24T05:10:46.895Z,-3.8
2018-03-24T05:11:36.940Z,-3.8
2018-03-24T05:14:06.834Z,-3.8
2018-03-24T05:16:36.749Z,-3.8
2018-03-24T05:25:47.907Z,-3.7
2018-03-24T05:26:37.696Z,-3.7
2018-03-24T05:30:48.267Z,-3.7
2018-03-24T05:31:38.014Z,-3.7
2018-03-24T05:32:28.366Z,-3.7
2018-03-24T05:33:18.417Z,-3.7
2018-03-24T05:34:08.476Z,-3.7
2018-03-24T05:34:58.263Z,-3.7
2018-03-24T05:35:48.609Z,-3.7
2018-03-24T05:36:38.370Z,-3.7
2018-03-24T05:37:28.721Z,-3.7
2018-03-24T05:38:18.781Z,-3.7
2018-03-24T05:39:08.658Z,-3.7
2018-03-24T05:39:58.883Z,-3.6
2018-03-24T05:40:48.983Z,-3.6
2018-03-24T05:41:38.983Z,-3.6
2018-03-24T05:42:28.777Z,-3.6
2018-03-24T05:43:18.824Z,-3.6
2018-03-24T05:44:08.887Z,-3.6
2018-03-24T05:44:58.937Z,-3.6
2018-03-24T05:45:48.702Z,-3.6
2018-03-24T05:46:39.330Z,-3.6
2018-03-24T05:47:29.391Z,-3.6
2018-03-24T05:48:19.162Z,-3.6
2018-03-24T05:49:09.489Z,-3.6
2018-03-24T05:49:59.292Z,-3.6
2018-03-24T05:50:49.324Z,-3.6
2018-03-24T05:51:39.396Z,-3.6
2018-03-24T05:52:29.457Z,-3.6
2018-03-24T05:53:19.785Z,-3.6
2018-03-24T05:54:09.850Z,-3.5
2018-03-24T05:54:59.606Z,-3.5
2018-03-24T05:55:49.779Z,-3.5
2018-03-24T05:56:39.545Z,-3.5
2018-03-24T05:57:30.097Z,-3.5
2018-03-24T05:58:19.842Z,-3.5
2018-03-24T05:59:10.169Z,-3.5
2018-03-24T05:59:59.964Z,-3.4
2018-03-24T06:00:50.293Z,-3.5
2018-03-24T06:01:40.346Z,-3.4
2018-03-24T06:02:30.416Z,-3.4
2018-03-24T06:03:20.476Z,-3.4
2018-03-24T06:04:10.542Z,-3.4
2018-03-24T06:05:00.316Z,-3.4
2018-03-24T06:05:50.360Z,-3.4
2018-03-24T06:06:40.692Z,-3.4
2018-03-24T06:07:30.470Z,-3.3
2018-03-24T06:08:20.526Z,-3.3
2018-03-24T06:09:10.866Z,-3.3
2018-03-24T06:10:00.943Z,-3.3
2018-03-24T06:10:50.693Z,-3.3
2018-03-24T06:11:40.751Z,-3.3
2018-03-24T06:12:31.106Z,-3.3
2018-03-24T06:13:20.884Z,-3.3
2018-03-24T06:14:10.916Z,-3.3
2018-03-24T06:15:01.263Z,-3.2
2018-03-24T06:15:51.090Z,-3.2
2018-03-24T06:16:41.078Z,-3.2
2018-03-24T06:17:31.443Z,-3.2
2018-03-24T06:18:21.506Z,-3.1
2018-03-24T06:19:11.567Z,-3.1
2018-03-24T06:20:01.042Z,-3.1
2018-03-24T06:20:51.646Z,-3.1
2018-03-24T06:21:41.154Z,-3.1
2018-03-24T06:22:31.771Z,-3.1
2018-03-24T06:23:21.825Z,-3.1
2018-03-24T06:24:11.606Z,-3.1
2018-03-24T06:25:01.936Z,-3
2018-03-24T06:25:51.726Z,-3
2018-03-24T06:26:41.782Z,-2.9
2018-03-24T06:27:32.123Z,-2.9
2018-03-24T06:28:22.158Z,-2.9
2018-03-24T06:29:12.214Z,-2.9
2018-03-24T06:30:02.006Z,-2.9
2018-03-24T06:30:52.339Z,-2.9
2018-03-24T06:31:42.398Z,-2.9
2018-03-24T06:32:32.174Z,-2.9
2018-03-24T06:33:22.542Z,-2.8
2018-03-24T06:34:12.606Z,-2.8
2018-03-24T06:35:02.105Z,-2.8
2018-03-24T06:35:52.689Z,-2.8
2018-03-24T06:36:42.738Z,-2.8
2018-03-24T06:37:32.786Z,-2.8
2018-03-24T06:38:22.919Z,-2.7
2018-03-24T06:39:12.340Z,-2.7
2018-03-24T06:40:02.685Z,-2.7
2018-03-24T06:40:53.023Z,-2.7
2018-03-24T06:41:43.083Z,-2.6
2018-03-24T06:42:33.180Z,-2.6
2018-03-24T06:43:22.926Z,-2.6
2018-03-24T06:44:12.983Z,-2.6
2018-03-24T06:45:03.301Z,-2.6
2018-03-24T06:45:53.377Z,-2.6
2018-03-24T06:46:43.429Z,-2.5
2018-03-24T06:47:33.514Z,-2.5
2018-03-24T06:48:23.548Z,-2.5
2018-03-24T06:49:13.593Z,-2.4
2018-03-24T06:50:03.654Z,-2.4
2018-03-24T06:50:53.738Z,-2.4
2018-03-24T06:51:43.194Z,-2.4
2018-03-24T06:52:33.534Z,-2.4
2018-03-24T06:53:23.877Z,-2.3
2018-03-24T06:54:13.918Z,-2.3
2018-03-24T06:55:03.714Z,-2.3
2018-03-24T06:55:53.756Z,-2.3
2018-03-24T06:56:44.087Z,-2.3
2018-03-24T06:57:33.879Z,-2.2
2018-03-24T06:58:24.219Z,-2.2
2018-03-24T06:59:13.988Z,-2.2
2018-03-24T07:00:04.337Z,-2.1
2018-03-24T07:00:54.399Z,-2.1
2018-03-24T07:01:44.439Z,-2.1
2018-03-24T07:02:34.209Z,-2.1
2018-03-24T07:03:24.551Z,-2.1
2018-03-24T07:04:14.609Z,-2.1
2018-03-24T07:05:04.662Z,-2
2018-03-24T07:05:54.714Z,-2
2018-03-24T07:06:44.776Z,-1.9
2018-03-24T07:07:34.851Z,-1.9
2018-03-24T07:08:24.887Z,-1.9
2018-03-24T07:09:14.666Z,-1.9
2018-03-24T07:10:04.996Z,-1.8
2018-03-24T07:10:55.054Z,-1.8
2018-03-24T07:11:44.841Z,-1.8
2018-03-24T07:12:34.894Z,-1.8
2018-03-24T07:13:25.279Z,-1.8
2018-03-24T07:14:15.003Z,-1.7
2018-03-24T07:15:05.113Z,-1.7
2018-03-24T07:15:55.123Z,-1.6
2018-03-24T07:16:45.465Z,-1.6
2018-03-24T07:17:35.505Z,-1.6
2018-03-24T07:18:25.563Z,-1.6
2018-03-24T07:19:15.360Z,-1.5
2018-03-24T07:20:05.701Z,-1.5
2018-03-24T07:20:55.733Z,-1.4
2018-03-24T07:21:45.787Z,-1.4
2018-03-24T07:22:35.590Z,-1.4
2018-03-24T07:23:25.901Z,-1.4
2018-03-24T07:24:15.956Z,-1.4
2018-03-24T07:25:06.029Z,-1.3
2018-03-24T07:25:56.085Z,-1.3
2018-03-24T07:26:45.849Z,-1.3
2018-03-24T07:27:36.280Z,-1.3
2018-03-24T07:28:26.254Z,-1.3
2018-03-24T07:29:16.340Z,-1.2
2018-03-24T07:30:06.385Z,-1.2
2018-03-24T07:30:56.410Z,-1.2
2018-03-24T07:31:46.490Z,-1.1
2018-03-24T07:32:36.575Z,-1.1
2018-03-24T07:33:26.583Z,-1.1
2018-03-24T07:34:16.650Z,-1.1
2018-03-24T07:35:06.442Z,-1.1
2018-03-24T07:35:56.767Z,-1
2018-03-24T07:39:16.998Z,-0.9
2018-03-24T07:40:07.037Z,-0.9
2018-03-24T07:40:56.810Z,-0.9
2018-03-24T07:41:46.878Z,-0.8
2018-03-24T07:42:37.205Z,-0.8
2018-03-24T07:43:27.281Z,-0.8
2018-03-24T07:44:17.048Z,-0.8
2018-03-24T07:45:07.389Z,-0.8
2018-03-24T07:45:57.446Z,-0.7
2018-03-24T07:46:47.504Z,-0.6
2018-03-24T07:47:37.745Z,-0.6
2018-03-24T07:48:27.604Z,-0.6
2018-03-24T07:49:17.471Z,-0.6
2018-03-24T07:50:07.450Z,-0.6
2018-03-24T07:50:57.793Z,-0.5
2018-03-24T07:51:47.824Z,-0.5
2018-03-24T07:52:37.924Z,-0.4
2018-03-24T07:53:27.939Z,-0.4
2018-03-24T07:54:17.714Z,-0.4
2018-03-24T07:55:08.080Z,-0.4
2018-03-24T07:55:57.833Z,-0.4
2018-03-24T07:56:48.167Z,-0.3
2018-03-24T07:57:37.952Z,-0.3
2018-03-24T07:58:27.703Z,-0.3
2018-03-24T07:59:18.339Z,-0.3
2018-03-24T08:00:08.401Z,-0.2
2018-03-24T08:00:58.458Z,-0.2
2018-03-24T08:01:48.529Z,-0.1
2018-03-24T08:02:38.564Z,-0.1
2018-03-24T08:03:28.624Z,-0.1
2018-03-24T08:04:18.842Z,-0.1
2018-03-24T08:05:08.755Z,-0.1
2018-03-24T08:05:58.781Z,0
2018-03-24T08:06:48.881Z,0
2018-03-24T08:07:38.930Z,0.1
2018-03-24T08:08:28.958Z,0.1
2018-03-24T08:09:19.011Z,0.1
2018-03-24T08:10:09.109Z,0.1
2018-03-24T08:10:59.141Z,0.1
2018-03-24T08:11:48.913Z,0.2
2018-03-24T08:12:38.956Z,0.2
2018-03-24T08:13:29.031Z,0.3
2018-03-24T08:14:19.073Z,0.3
2018-03-24T08:15:09.409Z,0.3
2018-03-24T08:15:59.180Z,0.3
2018-03-24T08:16:49.007Z,0.4
2018-03-24T08:17:38.818Z,0.4
2018-03-24T08:18:29.464Z,0.4
2018-03-24T08:19:19.123Z,0.4
2018-03-24T08:20:09.475Z,0.5
2018-03-24T08:20:59.251Z,0.5
2018-03-24T08:21:49.287Z,0.6
2018-03-24T08:22:39.358Z,0.6
2018-03-24T08:23:29.205Z,0.6
2018-03-24T08:24:19.653Z,0.6
2018-03-24T08:25:09.815Z,0.6
2018-03-24T08:25:59.677Z,0.6
2018-03-24T08:26:49.927Z,0.7
2018-03-24T08:27:40.085Z,0.7
2018-03-24T08:28:30.333Z,0.7
2018-03-24T08:29:19.892Z,0.8
2018-03-24T08:30:10.152Z,0.8
2018-03-24T08:31:00.195Z,0.8
2018-03-24T08:31:50.563Z,0.8
2018-03-24T08:32:40.320Z,0.8
2018-03-24T08:33:30.271Z,0.9
2018-03-24T08:34:20.530Z,0.9
2018-03-24T08:35:10.774Z,0.9
2018-03-24T08:36:00.262Z,0.9
2018-03-24T08:36:50.404Z,0.9
2018-03-24T08:37:40.673Z,1
2018-03-24T08:38:30.717Z,1.1
2018-03-24T08:39:20.860Z,1.1
2018-03-24T08:40:11.121Z,1.1
2018-03-24T08:41:00.597Z,1.1
2018-03-24T08:41:50.965Z,1.2
2018-03-24T08:42:41.000Z,1.2
2018-03-24T08:43:31.344Z,1.3
2018-03-24T08:44:21.399Z,1.3
2018-03-24T08:45:11.220Z,1.3
2018-03-24T08:46:01.517Z,1.3
2018-03-24T08:46:50.702Z,1.4
2018-03-24T08:47:41.646Z,1.4
2018-03-24T08:48:31.107Z,1.4
2018-03-24T08:49:21.738Z,1.5
2018-03-24T08:50:11.515Z,1.5
2018-03-24T08:51:01.274Z,1.6
2018-03-24T08:51:51.904Z,1.6
2018-03-24T08:52:41.681Z,1.6
2018-03-24T08:53:31.719Z,1.6
2018-03-24T08:54:21.380Z,1.7
2018-03-24T08:55:11.852Z,1.8
2018-03-24T08:56:01.596Z,1.8
2018-03-24T08:56:51.991Z,1.9
2018-03-24T08:57:42.016Z,1.9
2018-03-24T08:58:32.070Z,1.9
2018-03-24T08:59:21.838Z,2
2018-03-24T09:00:11.882Z,2.1
2018-03-24T09:01:02.528Z,2.1
2018-03-24T09:01:52.581Z,2.2
2018-03-24T09:02:42.627Z,2.3
2018-03-24T09:03:32.126Z,2.3
2018-03-24T09:04:21.983Z,2.4
2018-03-24T09:05:12.222Z,2.4
2018-03-24T09:06:02.660Z,2.4
2018-03-24T09:06:52.712Z,2.5
2018-03-24T09:07:42.401Z,2.6
2018-03-24T09:08:32.737Z,2.6
2018-03-24T09:09:22.817Z,2.7
2018-03-24T09:10:13.157Z,2.8
2018-03-24T09:11:03.212Z,2.8
2018-03-24T09:11:53.265Z,2.9
2018-03-24T09:12:43.031Z,3
2018-03-24T09:13:33.075Z,3.1
2018-03-24T09:14:23.130Z,3.1
2018-03-24T09:15:13.197Z,3.2
2018-03-24T09:16:03.252Z,3.3
2018-03-24T09:16:53.394Z,3.3
2018-03-24T09:17:43.367Z,3.4
2018-03-24T09:18:33.714Z,3.4
2018-03-24T09:19:23.480Z,3.6
2018-03-24T09:20:13.821Z,3.6
2018-03-24T09:21:03.405Z,3.7
2018-03-24T09:21:53.656Z,3.8
2018-03-24T09:22:43.802Z,3.9
2018-03-24T09:23:33.761Z,3.9
2018-03-24T09:24:23.853Z,4
2018-03-24T09:25:13.667Z,4.1
2018-03-24T09:26:03.912Z,4.2
2018-03-24T09:26:54.317Z,4.3
2018-03-24T09:27:44.050Z,4.4
2018-03-24T09:28:33.806Z,4.5
2018-03-24T09:29:24.448Z,4.6
2018-03-24T09:30:14.209Z,4.8
2018-03-24T09:31:04.273Z,4.8
2018-03-24T09:31:54.114Z,4.9
2018-03-24T09:32:44.649Z,5.1
2018-03-24T09:33:33.941Z,5.2
2018-03-24T09:34:24.553Z,5.3
2018-03-24T09:35:14.538Z,5.4
2018-03-24T09:36:04.899Z,5.5
2018-03-24T09:36:54.673Z,4
2018-03-24T09:37:44.431Z,3.8
2018-03-24T09:38:34.771Z,29.9
2018-03-24T09:39:24.626Z,40.8
2018-03-24T09:40:14.894Z,41.4
2018-03-24T09:41:04.804Z,39.1
2018-03-24T09:41:55.006Z,37.3
2018-03-24T09:42:45.059Z,35.9
2018-03-24T09:43:35.106Z,34.9
2018-03-24T09:44:24.683Z,34.2
2018-03-24T09:45:14.946Z,33.6
2018-03-24T09:46:04.993Z,33.2
2018-03-24T09:46:55.341Z,32.8
2018-03-24T09:47:45.389Z,32.5
2018-03-24T09:48:35.060Z,32.2
2018-03-24T09:49:25.511Z,31.9
2018-03-24T17:51:47.421Z,3.3
2018-03-24T17:52:37.485Z,3.3
2018-03-24T17:53:27.242Z,3.3
2018-03-24T17:54:17.698Z,3.2
2018-03-24T17:55:07.929Z,3.2
2018-03-24T17:55:57.514Z,3.1
2018-03-24T17:56:48.078Z,3.1
2018-03-24T17:57:37.580Z,3.1
2018-03-24T17:58:27.588Z,3.1
2018-03-24T17:59:17.446Z,3
2018-03-24T18:00:07.497Z,3
2018-03-24T18:00:57.757Z,2.9
2018-03-24T18:01:47.812Z,2.9
2018-03-24T18:02:37.868Z,2.9
2018-03-24T18:03:28.012Z,2.9
2018-03-24T18:04:18.274Z,2.8
2018-03-24T18:05:08.032Z,2.8
2018-03-24T18:05:58.390Z,2.8
2018-03-24T18:06:48.240Z,2.8
2018-03-24T18:07:38.552Z,2.7
2018-03-24T18:08:28.257Z,2.7
2018-03-24T18:09:18.619Z,2.7
2018-03-24T18:10:09.104Z,2.6
2018-03-24T18:10:58.438Z,2.6
2018-03-24T18:11:48.785Z,2.6
2018-03-24T18:12:39.103Z,2.6
2018-03-24T18:13:28.404Z,2.5
2018-03-24T18:14:18.457Z,2.5
2018-03-24T18:15:08.801Z,2.5
2018-03-24T18:15:58.841Z,2.4
2018-03-24T18:16:48.904Z,2.4
2018-03-24T18:17:38.961Z,2.4
2018-03-24T18:18:29.022Z,2.4
2018-03-24T18:19:19.080Z,2.4
2018-03-24T18:20:09.138Z,2.3
2018-03-24T18:20:59.182Z,2.3
2018-03-24T18:21:48.961Z,2.3
2018-03-24T18:22:39.297Z,2.3
2018-03-24T18:23:29.355Z,2.3
2018-03-24T18:24:19.436Z,2.2
2018-03-24T18:25:09.188Z,2.2
2018-03-24T18:25:59.255Z,2.1
2018-03-24T18:26:50.078Z,2.1
2018-03-24T18:27:39.651Z,2.1
2018-03-24T18:28:29.408Z,2.1
2018-03-24T18:29:19.471Z,2.1
2018-03-24T18:30:09.525Z,2.1
2018-03-24T18:30:59.582Z,2
2018-03-24T18:31:49.945Z,2
2018-03-24T18:32:39.973Z,2
2018-03-24T18:33:30.033Z,1.9
2018-03-24T18:34:20.101Z,1.9
2018-03-24T18:35:10.634Z,1.9
2018-03-24T18:35:59.925Z,1.9
2018-03-24T18:36:49.695Z,1.9
2018-03-24T18:37:40.124Z,1.9
2018-03-24T18:38:30.868Z,1.8
2018-03-24T18:39:20.639Z,1.8
2018-03-24T18:40:10.200Z,1.8
2018-03-24T18:41:00.258Z,1.8
2018-03-24T18:41:50.325Z,1.8
2018-03-24T18:42:40.468Z,1.8
2018-03-24T18:43:30.925Z,1.7
2018-03-24T18:44:20.771Z,1.7
2018-03-24T18:45:11.315Z,1.7
2018-03-24T18:46:01.097Z,1.7
2018-03-24T18:46:51.055Z,1.6
2018-03-24T18:47:41.543Z,1.6
2018-03-24T18:48:31.045Z,1.6
2018-03-24T18:49:21.601Z,1.6
2018-03-24T18:50:11.653Z,1.6
2018-03-24T18:51:01.702Z,1.6
2018-03-24T18:51:51.769Z,1.6
2018-03-24T18:52:41.808Z,1.5
2018-03-24T18:53:31.876Z,1.6
2018-03-24T18:54:21.448Z,1.5
2018-03-24T18:55:11.987Z,1.5
2018-03-24T18:56:02.041Z,1.4
2018-03-24T18:56:52.091Z,1.4
2018-03-24T18:57:42.153Z,1.4
2018-03-24T18:58:32.209Z,1.4
2018-03-24T18:59:22.256Z,1.4
2018-03-24T19:00:12.329Z,1.4
2018-03-24T19:01:02.402Z,1.4
2018-03-24T19:01:52.435Z,1.3
2018-03-24T19:02:42.206Z,1.4
2018-03-24T19:03:32.261Z,1.3
2018-03-24T19:04:22.613Z,1.3
2018-03-24T19:05:12.700Z,1.3
2018-03-24T19:06:02.711Z,1.3
2018-03-24T19:06:52.773Z,1.3
2018-03-24T19:07:42.832Z,1.3
2018-03-24T19:08:32.608Z,1.3
2018-03-24T19:09:22.935Z,1.3
2018-03-24T19:10:12.715Z,1.3
2018-03-24T19:11:03.065Z,1.2
2018-03-24T19:11:53.123Z,1.2
2018-03-24T19:12:43.167Z,1.2
2018-03-24T19:13:32.704Z,1.2
2018-03-24T19:14:23.307Z,1.1
2018-03-24T19:15:13.339Z,1.1
2018-03-24T19:16:03.422Z,1.1
2018-03-24T19:16:53.176Z,1.1
2018-03-24T19:17:43.517Z,1.1
2018-03-24T19:18:33.295Z,1.1
2018-03-24T19:19:23.617Z,1.1
2018-03-24T19:20:13.680Z,1.1
2018-03-24T19:21:03.735Z,1.1
2018-03-24T19:21:53.793Z,1.1
2018-03-24T19:22:43.861Z,1
2018-03-24T19:23:33.916Z,1
2018-03-24T19:24:23.697Z,1
2018-03-24T19:25:14.020Z,1
2018-03-24T19:26:04.084Z,1
2018-03-24T19:26:53.847Z,0.9
2018-03-24T19:27:44.187Z,0.9
2018-03-24T19:28:34.255Z,0.9
2018-03-24T19:29:24.306Z,0.9
2018-03-24T19:30:14.408Z,0.9
2018-03-24T19:31:04.441Z,0.9
2018-03-24T19:31:54.195Z,0.9
2018-03-24T19:32:44.258Z,0.9
2018-03-24T19:33:34.592Z,0.9
2018-03-24T19:34:24.364Z,0.9
2018-03-24T19:35:14.230Z,0.8
2018-03-24T19:36:04.498Z,0.9
2018-03-24T19:36:54.252Z,0.8
2018-03-24T19:37:44.584Z,0.8
2018-03-24T19:38:34.355Z,0.8
2018-03-24T19:39:25.046Z,0.8
2018-03-24T19:40:15.041Z,0.8
2018-03-24T19:41:05.111Z,0.8
2018-03-24T19:41:54.880Z,0.8
2018-03-24T19:42:45.247Z,0.8
2018-03-24T19:43:34.597Z,0.8
2018-03-24T19:44:25.043Z,0.8
2018-03-24T19:45:14.904Z,0.8
2018-03-24T19:46:05.435Z,0.8
2018-03-24T19:46:55.218Z,0.7
2018-03-24T19:47:45.597Z,0.7
2018-03-24T19:48:35.326Z,0.7
2018-03-24T19:49:25.678Z,0.7
2018-03-24T19:50:15.719Z,0.7
2018-03-24T19:51:05.498Z,0.7
2018-03-24T19:51:55.909Z,0.7
2018-03-24T19:52:45.913Z,0.6
2018-03-24T19:53:35.765Z,0.6
2018-03-24T19:54:26.008Z,0.6
2018-03-24T19:55:15.786Z,0.6
2018-03-24T19:56:06.142Z,0.6
2018-03-24T19:56:55.902Z,0.6
2018-03-24T19:57:46.072Z,0.6
2018-03-24T19:58:35.827Z,0.6
2018-03-24T19:59:26.356Z,0.6
2018-03-24T20:00:16.146Z,0.6
2018-03-24T20:01:05.899Z,0.6
2018-03-24T20:01:55.958Z,0.6